createdAt,value
2022-11-27T00:02:19.356Z,47.10
2022-11-27T00:04:51.471Z,87.50
2022-11-27T00:07:23.419Z,62.80
2022-11-27T00:09:55.366Z,122.70
2022-11-27T00:12:27.252Z,77.60
2022-11-27T00:14:59.253Z,54.70
2022-11-27T00:17:31.232Z,50.30
2022-11-27T00:20:03.141Z,67.40
2022-11-27T00:22:35.080Z,61.90
2022-11-27T00:25:09.957Z,88.10
2022-11-27T00:27:41.901Z,67.10
2022-11-27T00:30:15.971Z,54.20
2022-11-27T00:32:48.234Z,94.60
2022-11-27T00:35:20.355Z,52.40
2022-11-27T00:37:52.317Z,46.70
2022-11-27T00:40:24.208Z,50.20
2022-11-27T00:42:56.140Z,49.10
2022-11-27T00:45:28.152Z,49.20
2022-11-27T00:48:00.144Z,50.80
2022-11-27T00:50:32.489Z,47.50
2022-11-27T00:53:04.481Z,47.40
2022-11-27T00:55:36.442Z,49.50
2022-11-27T00:58:08.403Z,49.00
2022-11-27T01:00:40.393Z,51.60
2022-11-27T01:03:12.643Z,45.00
2022-11-27T01:05:44.997Z,49.20
2022-11-27T01:08:16.975Z,48.10
2022-11-27T01:10:54.936Z,47.00
2022-11-27T01:13:29.989Z,45.50
2022-11-27T01:16:03.290Z,46.90
2022-11-27T01:18:36.554Z,49.10
2022-11-27T01:21:09.106Z,51.70
2022-11-27T01:23:41.507Z,54.30
2022-11-27T01:26:13.903Z,57.70
2022-11-27T01:28:46.869Z,53.70
2022-11-27T01:31:20.816Z,49.10
2022-11-27T01:33:55.964Z,48.30
2022-11-27T01:36:28.617Z,45.60
2022-11-27T01:39:01.046Z,51.00
2022-11-27T01:41:35.236Z,45.00
2022-11-27T01:44:44.393Z,41.70
2022-11-27T01:47:24.114Z,46.40
2022-11-27T01:49:59.867Z,46.80
2022-11-27T01:52:36.617Z,45.10
2022-11-27T01:55:13.879Z,52.00
2022-11-27T01:57:49.632Z,48.00
2022-11-27T02:00:22.613Z,51.50
2022-11-27T02:02:55.161Z,48.20
2022-11-27T02:05:29.340Z,48.50
2022-11-27T02:08:04.225Z,47.60
2022-11-27T02:10:42.428Z,42.30
2022-11-27T02:13:19.050Z,42.90
2022-11-27T02:15:57.524Z,43.70
2022-11-27T02:18:38.594Z,42.30
2022-11-27T02:21:18.469Z,43.60
2022-11-27T02:24:08.990Z,45.50
2022-11-27T02:27:04.654Z,44.10
2022-11-27T02:29:37.877Z,47.10
2022-11-27T02:32:17.010Z,45.80
2022-11-27T02:34:56.272Z,43.70
2022-11-27T02:37:35.635Z,44.90
2022-11-27T02:40:13.866Z,43.80
2022-11-27T02:42:50.387Z,42.40
2022-11-27T02:45:29.340Z,41.80
2022-11-27T02:48:02.378Z,40.50
2022-11-27T02:50:37.216Z,38.70
2022-11-27T02:53:13.653Z,40.30
2022-11-27T02:55:47.894Z,38.70
2022-11-27T02:58:23.978Z,40.50
2022-11-27T03:00:58.732Z,40.30
2022-11-27T03:03:35.432Z,45.60
2022-11-27T03:06:12.950Z,44.50
2022-11-27T03:08:53.468Z,43.30
2022-11-27T03:11:27.808Z,44.10
2022-11-27T03:14:04.409Z,42.20
2022-11-27T03:16:43.998Z,43.70
2022-11-27T03:19:21.057Z,42.10
2022-11-27T03:21:57.144Z,41.40
2022-11-27T03:24:30.360Z,39.30
2022-11-27T03:27:02.862Z,41.80
2022-11-27T03:29:39.689Z,41.70
2022-11-27T03:32:12.316Z,40.30
2022-11-27T03:34:44.564Z,40.30
2022-11-27T03:37:16.832Z,41.50
2022-11-27T03:39:49.097Z,38.60
2022-11-27T03:42:28.003Z,42.10
2022-11-27T03:45:08.159Z,46.60
2022-11-27T03:47:55.816Z,42.50
2022-11-27T03:50:41.936Z,43.40
2022-11-27T03:53:25.984Z,42.10
2022-11-27T03:56:09.770Z,38.00
2022-11-27T03:58:48.270Z,38.10
2022-11-27T04:01:24.619Z,40.50
2022-11-27T04:03:56.654Z,38.70
2022-11-27T04:06:28.687Z,42.20
2022-11-27T04:09:00.655Z,41.40
2022-11-27T04:11:32.691Z,41.30
2022-11-27T04:14:05.243Z,43.80
2022-11-27T04:16:37.280Z,42.30
2022-11-27T04:19:09.638Z,42.50
2022-11-27T04:21:41.568Z,44.70
2022-11-27T04:24:13.481Z,44.00
2022-11-27T04:26:45.418Z,42.40
2022-11-27T04:29:18.011Z,41.20
2022-11-27T04:31:50.080Z,40.80
2022-11-27T04:34:22.179Z,39.90
2022-11-27T04:36:54.143Z,40.80
2022-11-27T04:39:26.028Z,44.40
2022-11-27T04:41:58.043Z,41.50
2022-11-27T04:44:30.006Z,43.00
2022-11-27T04:47:02.775Z,47.40
2022-11-27T04:49:34.885Z,48.00
2022-11-27T04:52:07.366Z,45.30
2022-11-27T04:54:39.746Z,46.90
2022-11-27T04:57:11.909Z,50.80
2022-11-27T04:59:44.199Z,49.00
2022-11-27T05:02:16.185Z,48.30
2022-11-27T05:04:48.273Z,43.10
2022-11-27T05:07:20.264Z,46.80
2022-11-27T05:09:52.380Z,44.80
2022-11-27T05:12:24.369Z,41.00
2022-11-27T05:14:57.961Z,38.40
2022-11-27T05:17:32.676Z,42.10
2022-11-27T05:20:04.996Z,45.00
2022-11-27T05:22:37.010Z,42.80
2022-11-27T05:25:13.178Z,44.10
2022-11-27T05:27:45.058Z,42.40
2022-11-27T05:30:17.329Z,42.30
2022-11-27T05:32:49.294Z,51.60
2022-11-27T05:35:21.179Z,50.30
2022-11-27T05:37:53.118Z,43.40
2022-11-27T05:40:25.028Z,40.40
2022-11-27T05:42:56.991Z,38.20
2022-11-27T05:45:29.057Z,39.80
2022-11-27T05:48:00.996Z,37.60
2022-11-27T05:50:33.191Z,41.40
2022-11-27T05:53:05.155Z,49.40
2022-11-27T05:55:37.039Z,50.50
2022-11-27T05:58:09.028Z,44.20
2022-11-27T06:00:40.999Z,60.50
2022-11-27T06:03:13.396Z,57.00
2022-11-27T06:05:45.380Z,66.70
2022-11-27T06:08:17.317Z,270.40
2022-11-27T06:10:50.295Z,131.40
2022-11-27T06:13:22.217Z,212.70
2022-11-27T06:15:54.107Z,149.50
2022-11-27T06:18:26.094Z,192.00
2022-11-27T06:20:58.004Z,175.60
2022-11-27T06:23:30.300Z,70.30
2022-11-27T06:26:10.251Z,73.10
2022-11-27T06:28:42.650Z,47.70
2022-11-27T06:31:18.297Z,40.80
2022-11-27T06:33:51.696Z,44.90
2022-11-27T06:36:24.608Z,44.90
2022-11-27T06:38:57.035Z,53.20
2022-11-27T06:41:29.311Z,49.10
2022-11-27T06:44:03.392Z,51.00
2022-11-27T06:46:35.260Z,47.20
2022-11-27T06:49:07.394Z,41.50
2022-11-27T06:51:39.308Z,54.60
2022-11-27T06:54:11.192Z,124.70
2022-11-27T06:56:43.258Z,217.20
2022-11-27T06:59:15.682Z,219.80
2022-11-27T07:01:47.880Z,229.00
2022-11-27T07:04:19.846Z,227.30
2022-11-27T07:06:51.829Z,83.70
2022-11-27T07:09:23.845Z,66.60
2022-11-27T07:11:55.760Z,56.10
2022-11-27T07:14:27.694Z,64.90
2022-11-27T07:16:59.632Z,84.60
2022-11-27T07:19:31.909Z,95.00
2022-11-27T07:22:03.789Z,108.40
2022-11-27T07:24:35.862Z,106.40
2022-11-27T07:27:08.766Z,86.50
2022-11-27T07:29:40.702Z,79.70
2022-11-27T07:32:12.595Z,77.80
2022-11-27T07:34:44.476Z,100.30
2022-11-27T07:37:16.465Z,87.10
2022-11-27T07:40:02.490Z,104.40
2022-11-27T07:42:39.200Z,69.40
2022-11-27T07:45:14.063Z,62.50
2022-11-27T07:47:46.283Z,84.20
2022-11-27T07:50:18.195Z,71.30
2022-11-27T07:52:50.110Z,53.80
2022-11-27T07:55:22.075Z,50.70
2022-11-27T07:57:54.061Z,48.10
2022-11-27T08:00:26.108Z,57.20
2022-11-27T08:02:58.116Z,67.00
2022-11-27T08:05:30.181Z,69.70
2022-11-27T08:08:05.039Z,72.30
2022-11-27T08:13:09.937Z,97.80
2022-11-27T08:15:41.953Z,139.50
2022-11-27T08:18:13.893Z,62.90
2022-11-27T08:20:45.828Z,100.70
2022-11-27T08:23:17.715Z,89.00
2022-11-27T08:25:49.652Z,76.20
2022-11-27T08:28:21.948Z,66.00
2022-11-27T08:31:00.287Z,71.10
2022-11-27T08:33:33.324Z,55.60
2022-11-27T08:36:09.022Z,52.80
2022-11-27T08:38:43.215Z,56.70
2022-11-27T08:41:15.592Z,46.00
2022-11-27T08:43:47.582Z,56.00
2022-11-27T08:46:19.761Z,50.40
2022-11-27T08:48:51.999Z,55.20
2022-11-27T08:51:24.348Z,52.70
2022-11-27T08:53:56.278Z,65.00
2022-11-27T08:56:28.445Z,62.40
2022-11-27T08:59:00.434Z,59.60
2022-11-27T09:01:33.624Z,52.80
2022-11-27T09:04:06.412Z,60.80
2022-11-27T09:06:39.501Z,90.00
2022-11-27T09:09:11.763Z,70.50
2022-11-27T09:11:43.961Z,50.60
2022-11-27T09:14:15.850Z,53.50
2022-11-27T09:16:48.012Z,48.70
2022-11-27T09:19:21.703Z,47.60
2022-11-27T09:21:53.762Z,59.40
2022-11-27T09:24:26.061Z,66.30
2022-11-27T09:26:58.123Z,62.80
2022-11-27T09:29:30.318Z,65.00
2022-11-27T09:32:02.382Z,56.20
2022-11-27T09:34:37.461Z,54.00
2022-11-27T09:37:10.304Z,66.00
2022-11-27T09:39:42.159Z,55.00
2022-11-27T09:42:34.639Z,48.40
2022-11-27T09:45:12.975Z,49.00
2022-11-27T09:47:50.404Z,60.90
2022-11-27T09:50:27.249Z,49.10
2022-11-27T09:53:02.568Z,50.50
2022-11-27T09:55:39.027Z,54.90
2022-11-27T09:58:19.747Z,51.60
2022-11-27T10:00:51.813Z,56.90
2022-11-27T10:03:27.536Z,58.70
2022-11-27T10:06:15.860Z,61.90
2022-11-27T10:08:59.779Z,58.90
2022-11-27T10:11:36.247Z,50.70
2022-11-27T10:14:20.602Z,59.30
2022-11-27T10:16:56.926Z,49.70
2022-11-27T10:19:36.895Z,56.40
2022-11-27T10:22:21.032Z,49.20
2022-11-27T10:25:04.373Z,47.60
2022-11-27T10:27:45.148Z,50.70
2022-11-27T10:30:19.799Z,67.30
2022-11-27T10:32:57.099Z,52.60
2022-11-27T10:35:31.822Z,59.70
2022-11-27T10:38:12.094Z,68.40
2022-11-27T10:40:46.979Z,85.30
2022-11-27T10:43:22.298Z,63.40
2022-11-27T10:45:58.369Z,83.60
2022-11-27T10:48:30.475Z,88.10
2022-11-27T10:51:02.411Z,80.50
2022-11-27T10:53:36.573Z,132.40
2022-11-27T10:56:31.782Z,57.40
2022-11-27T10:59:07.584Z,67.20
2022-11-27T11:01:47.550Z,127.90
2022-11-27T11:04:43.012Z,166.10
2022-11-27T11:07:27.542Z,87.70
2022-11-27T11:09:59.650Z,45.70
2022-11-27T11:12:31.922Z,44.90
2022-11-27T11:15:11.862Z,52.30
2022-11-27T11:17:43.756Z,49.20
2022-11-27T11:20:22.481Z,83.70
2022-11-27T11:22:54.678Z,167.10
2022-11-27T11:25:26.698Z,122.90
2022-11-27T11:27:58.907Z,51.90
2022-11-27T11:30:31.715Z,81.80
2022-11-27T11:33:05.396Z,42.50
2022-11-27T11:35:38.617Z,41.90
2022-11-27T11:38:20.177Z,37.30
2022-11-27T11:41:02.563Z,139.90
2022-11-27T11:43:36.520Z,45.00
2022-11-27T11:46:18.332Z,40.40
2022-11-27T11:48:58.955Z,160.50
2022-11-27T11:52:00.743Z,205.80
2022-11-27T11:54:50.268Z,60.50
2022-11-27T11:57:42.994Z,89.40
2022-11-27T12:00:18.023Z,93.00
2022-11-27T12:03:09.678Z,89.00
2022-11-27T12:05:55.441Z,39.80
2022-11-27T12:08:40.484Z,51.10
2022-11-27T12:11:18.438Z,64.10
2022-11-27T12:14:07.070Z,55.00
2022-11-27T12:16:51.629Z,63.70
2022-11-27T12:19:48.703Z,58.60
2022-11-27T12:22:37.339Z,48.80
2022-11-27T12:25:27.117Z,55.10
2022-11-27T12:28:12.903Z,50.50
2022-11-27T12:30:50.886Z,47.10
2022-11-27T12:33:51.571Z,39.60
2022-11-27T12:36:34.770Z,65.40
2022-11-27T12:39:16.822Z,68.90
2022-11-27T12:42:00.201Z,40.10
2022-11-27T12:44:44.711Z,47.90
2022-11-27T12:47:23.944Z,52.50
2022-11-27T12:50:00.720Z,45.30
2022-11-27T12:52:38.905Z,45.60
2022-11-27T12:55:16.832Z,55.20
2022-11-27T12:57:53.690Z,56.60
2022-11-27T13:00:29.490Z,58.20
2022-11-27T13:03:08.337Z,106.20
2022-11-27T13:05:46.267Z,79.70
2022-11-27T13:08:22.968Z,58.00
2022-11-27T13:10:59.922Z,66.10
2022-11-27T13:13:38.618Z,55.90
2022-11-27T13:16:18.920Z,156.20
2022-11-27T13:18:55.934Z,112.40
2022-11-27T13:21:32.197Z,92.10
2022-11-27T13:24:05.086Z,68.70
2022-11-27T13:26:41.706Z,63.80
2022-11-27T13:29:22.886Z,55.90
2022-11-27T13:31:58.913Z,53.50
2022-11-27T13:34:34.005Z,42.60
2022-11-27T13:39:43.359Z,54.30
2022-11-27T13:42:22.828Z,50.50
2022-11-27T13:44:59.447Z,59.90
2022-11-27T13:47:41.423Z,52.70
2022-11-27T13:50:16.993Z,44.20
2022-11-27T13:53:00.074Z,45.50
2022-11-27T13:55:34.083Z,46.40
2022-11-27T13:58:08.295Z,46.80
2022-11-27T14:00:43.360Z,45.40
2022-11-27T14:05:57.248Z,51.00
2022-11-27T14:08:32.250Z,63.60
2022-11-27T14:13:40.505Z,64.10
2022-11-27T14:16:26.655Z,81.50
2022-11-27T14:19:01.481Z,92.10
2022-11-27T14:21:41.355Z,63.90
2022-11-27T14:24:41.066Z,57.00
2022-11-27T14:27:22.685Z,67.20
2022-11-27T14:29:54.957Z,85.40
2022-11-27T14:32:39.079Z,55.20
2022-11-27T14:35:24.916Z,52.10
2022-11-27T14:38:08.351Z,68.60
2022-11-27T14:40:40.644Z,77.60
2022-11-27T14:43:16.614Z,119.40
2022-11-27T14:45:50.819Z,87.40
2022-11-27T14:48:26.301Z,70.30
2022-11-27T14:50:59.201Z,69.00
2022-11-27T14:53:31.496Z,70.50
2022-11-27T14:56:04.971Z,62.10
2022-11-27T14:58:38.571Z,51.30
2022-11-27T15:01:22.799Z,61.90
2022-11-27T15:04:03.951Z,49.30
2022-11-27T15:06:40.805Z,55.80
2022-11-27T15:09:31.793Z,285.10
2022-11-27T15:12:16.041Z,105.60
2022-11-27T15:14:57.886Z,321.60
2022-11-27T15:17:32.025Z,258.20
2022-11-27T15:20:12.000Z,154.50
2022-11-27T15:22:51.541Z,172.80
2022-11-27T15:25:38.917Z,152.70
2022-11-27T15:28:29.571Z,343.80
2022-11-27T15:31:01.886Z,302.80
2022-11-27T15:33:35.006Z,526.50
2022-11-27T15:36:20.180Z,394.60
2022-11-27T15:38:52.378Z,171.90
2022-11-27T15:41:26.717Z,128.90
2022-11-27T15:43:58.768Z,366.50
2022-11-27T15:46:35.737Z,293.90
2022-11-27T15:49:10.210Z,76.30
2022-11-27T15:51:42.427Z,188.40
2022-11-27T15:54:14.469Z,116.70
2022-11-27T15:56:47.103Z,162.70
2022-11-27T15:59:20.796Z,58.10
2022-11-27T16:01:53.002Z,43.70
2022-11-27T16:04:24.959Z,39.70
2022-11-27T16:06:56.987Z,56.00
2022-11-27T16:09:29.271Z,71.30
2022-11-27T16:12:01.211Z,82.60
2022-11-27T16:14:33.203Z,103.90
2022-11-27T16:17:05.091Z,70.90
2022-11-27T16:19:37.024Z,92.80
2022-11-27T16:22:09.017Z,107.90
2022-11-27T16:24:42.376Z,84.10
2022-11-27T16:27:14.653Z,65.10
2022-11-27T16:29:46.615Z,64.10
2022-11-27T16:32:18.549Z,82.10
2022-11-27T16:34:52.490Z,73.40
2022-11-27T16:37:25.093Z,56.50
2022-11-27T16:39:58.234Z,44.60
2022-11-27T16:42:30.239Z,84.70
2022-11-27T16:45:02.626Z,59.20
2022-11-27T16:47:34.634Z,65.20
2022-11-27T16:50:09.915Z,77.90
2022-11-27T16:52:42.276Z,41.20
2022-11-27T16:55:14.801Z,59.40
2022-11-27T16:57:47.280Z,40.30
2022-11-27T17:00:22.076Z,45.50
2022-11-27T17:02:54.054Z,74.70
2022-11-27T17:05:26.110Z,143.70
2022-11-27T17:07:58.219Z,72.60
2022-11-27T17:10:30.652Z,39.90
2022-11-27T17:13:02.746Z,32.70
2022-11-27T17:15:40.542Z,36.30
2022-11-27T17:18:13.865Z,49.50
2022-11-27T17:20:46.011Z,36.20
2022-11-27T17:23:18.302Z,52.90
2022-11-27T17:25:51.188Z,33.20
2022-11-27T17:28:23.714Z,37.40
2022-11-27T17:30:55.677Z,56.70
2022-11-27T17:33:28.283Z,66.90
2022-11-27T17:36:00.272Z,60.20
2022-11-27T17:38:32.734Z,58.60
2022-11-27T17:41:06.604Z,61.70
2022-11-27T17:43:40.947Z,56.70
2022-11-27T17:46:17.386Z,52.20
2022-11-27T17:48:50.890Z,51.30
2022-11-27T17:51:24.059Z,53.30
2022-11-27T17:53:56.788Z,60.00
2022-11-27T17:56:29.187Z,43.90
2022-11-27T17:59:01.586Z,63.50
2022-11-27T18:01:34.889Z,40.60
2022-11-27T18:04:07.605Z,52.20
2022-11-27T18:06:41.777Z,65.40
2022-11-27T18:09:14.765Z,55.90
2022-11-27T18:11:46.912Z,47.80
2022-11-27T18:14:19.099Z,42.70
2022-11-27T18:16:51.070Z,47.60
2022-11-27T18:19:23.622Z,55.30
2022-11-27T18:21:55.527Z,58.40
2022-11-27T18:24:27.722Z,38.90
2022-11-27T18:27:09.109Z,44.90
2022-11-27T18:29:44.832Z,73.70
2022-11-27T18:32:18.756Z,54.60
2022-11-27T18:34:52.804Z,33.30
2022-11-27T18:37:25.007Z,47.20
2022-11-27T18:39:57.064Z,39.90
2022-11-27T18:42:30.694Z,36.20
2022-11-27T18:45:03.988Z,32.70
2022-11-27T18:47:36.051Z,30.70
2022-11-27T18:50:10.705Z,45.40
2022-11-27T18:52:43.204Z,51.20
2022-11-27T18:55:15.170Z,41.40
2022-11-27T18:57:47.669Z,33.70
2022-11-27T19:00:21.426Z,25.40
2022-11-27T19:02:54.775Z,28.10
2022-11-27T19:05:27.040Z,27.40
2022-11-27T19:08:04.509Z,35.90
2022-11-27T19:10:36.520Z,41.40
2022-11-27T19:13:08.817Z,39.20
2022-11-27T19:15:42.857Z,39.30
2022-11-27T19:18:15.614Z,38.60
2022-11-27T19:20:49.114Z,50.20
2022-11-27T19:23:21.409Z,83.20
2022-11-27T19:25:53.756Z,64.00
2022-11-27T19:28:25.720Z,94.10
2022-11-27T19:30:57.785Z,102.20
2022-11-27T19:33:30.260Z,73.30
2022-11-27T19:36:04.244Z,55.20
2022-11-27T19:38:36.913Z,47.50
2022-11-27T19:41:13.831Z,34.30
2022-11-27T19:43:47.357Z,28.30
2022-11-27T19:46:21.640Z,30.40
2022-11-27T19:48:57.788Z,33.50
2022-11-27T19:51:33.195Z,30.00
2022-11-27T19:54:10.288Z,29.60
2022-11-27T19:56:44.248Z,30.90
2022-11-27T19:59:21.395Z,33.30
2022-11-27T20:01:58.456Z,32.60
2022-11-27T20:07:03.888Z,73.70
2022-11-27T20:09:36.098Z,100.40
2022-11-27T20:12:09.069Z,61.70
2022-11-27T20:14:41.572Z,40.20
2022-11-27T20:17:13.830Z,32.80
2022-11-27T20:19:45.948Z,41.00
2022-11-27T20:22:17.964Z,40.30
2022-11-27T20:25:17.169Z,31.40
2022-11-27T20:27:42.322Z,29.50
2022-11-27T20:30:16.457Z,28.90
2022-11-27T20:32:48.578Z,33.20
2022-11-27T20:35:20.734Z,33.40
2022-11-27T20:37:52.733Z,39.80
2022-11-27T20:40:25.911Z,34.70
2022-11-27T20:42:57.966Z,34.00
2022-11-27T20:45:29.886Z,39.40
2022-11-27T20:48:02.275Z,36.10
2022-11-27T20:50:34.955Z,36.60
2022-11-27T20:53:08.480Z,47.40
2022-11-27T20:55:40.473Z,35.90
2022-11-27T20:58:13.944Z,125.40
2022-11-27T21:00:46.059Z,114.70
2022-11-27T21:03:18.639Z,213.80
2022-11-27T21:05:51.651Z,118.50
2022-11-27T21:08:24.823Z,101.90
2022-11-27T21:10:57.191Z,47.40
2022-11-27T21:13:29.257Z,33.30
2022-11-27T21:16:02.193Z,42.30
2022-11-27T21:18:34.113Z,38.80
2022-11-27T21:21:12.519Z,37.50
2022-11-27T21:23:44.681Z,46.10
2022-11-27T21:26:16.891Z,45.50
2022-11-27T21:28:50.399Z,29.70
2022-11-27T21:31:24.657Z,48.90
2022-11-27T21:33:58.686Z,38.00
2022-11-27T21:36:33.337Z,55.00
2022-11-27T21:39:08.653Z,135.20
2022-11-27T21:41:40.644Z,131.30
2022-11-27T21:44:13.375Z,81.30
2022-11-27T21:46:45.620Z,75.80
2022-11-27T21:49:19.351Z,79.40
2022-11-27T21:51:54.958Z,63.70
2022-11-27T21:54:34.049Z,42.60
2022-11-27T21:57:06.429Z,44.70
2022-11-27T21:59:38.725Z,35.50
2022-11-27T22:02:13.211Z,33.20
2022-11-27T22:04:45.350Z,32.10
2022-11-27T22:07:17.344Z,31.30
2022-11-27T22:09:49.323Z,37.30
2022-11-27T22:12:21.460Z,35.50
2022-11-27T22:14:53.499Z,39.50
2022-11-27T22:17:25.513Z,50.60
2022-11-27T22:19:57.889Z,46.20
2022-11-27T22:22:30.977Z,74.50
2022-11-27T22:25:04.401Z,155.50
2022-11-27T22:27:36.363Z,82.50
2022-11-27T22:30:10.492Z,50.50
2022-11-27T22:32:43.042Z,38.80
2022-11-27T22:35:15.787Z,42.20
2022-11-27T22:37:47.877Z,174.30
2022-11-27T22:40:20.249Z,82.30
2022-11-27T22:42:53.084Z,79.40
2022-11-27T22:45:25.154Z,46.60
2022-11-27T22:47:57.268Z,82.70
2022-11-27T22:50:29.385Z,64.30
2022-11-27T22:53:01.321Z,46.00
2022-11-27T22:55:33.311Z,48.20
2022-11-27T22:58:05.304Z,35.00
2022-11-27T23:00:37.801Z,31.40
2022-11-27T23:03:09.804Z,31.90
2022-11-27T23:05:46.439Z,34.10
2022-11-27T23:08:19.097Z,24.90
2022-11-27T23:10:52.975Z,26.00
2022-11-27T23:13:24.913Z,43.20
2022-11-27T23:15:56.903Z,37.20
2022-11-27T23:18:28.840Z,38.90
2022-11-27T23:21:00.957Z,58.20
2022-11-27T23:23:33.074Z,56.40
2022-11-27T23:26:07.445Z,36.50
2022-11-27T23:28:39.905Z,50.70
2022-11-27T23:31:29.596Z,55.50
2022-11-27T23:34:04.482Z,81.60
2022-11-27T23:36:37.189Z,60.20
2022-11-27T23:39:12.299Z,52.90
2022-11-27T23:41:44.698Z,46.60
2022-11-27T23:44:16.612Z,41.30
2022-11-27T23:46:49.213Z,39.40
2022-11-27T23:49:21.485Z,39.90
2022-11-27T23:51:53.422Z,37.20
2022-11-27T23:54:25.282Z,44.70
2022-11-27T23:56:57.451Z,48.00
2022-11-27T23:59:29.415Z,67.10
